createdAt,value
2022-10-18T00:00:49.907Z,15.40
2022-10-18T00:03:38.002Z,14.80
2022-10-18T00:06:06.798Z,14.50
2022-10-18T00:08:34.143Z,17.20
2022-10-18T00:13:29.143Z,14.20
2022-10-18T00:15:59.540Z,14.40
2022-10-18T00:18:27.763Z,13.60
2022-10-18T00:21:03.863Z,14.30
2022-10-18T00:23:32.344Z,14.30
2022-10-18T00:26:06.309Z,13.90
2022-10-18T00:28:34.905Z,14.20
2022-10-18T00:31:15.919Z,13.90
2022-10-18T00:33:45.394Z,13.80
2022-10-18T00:36:14.185Z,14.10
2022-10-18T00:38:42.047Z,13.80
2022-10-18T00:41:11.465Z,14.10
2022-10-18T00:43:56.120Z,14.40
2022-10-18T00:46:24.989Z,13.70
2022-10-18T00:51:32.617Z,13.70
2022-10-18T00:56:28.577Z,14.20
2022-10-18T00:58:57.447Z,14.20
2022-10-18T01:01:28.293Z,14.30
2022-10-18T01:03:56.747Z,13.70
2022-10-18T01:06:25.074Z,13.40
2022-10-18T01:09:03.448Z,13.50
2022-10-18T01:11:55.773Z,14.10
2022-10-18T01:14:31.693Z,13.50
2022-10-18T01:17:04.341Z,13.40
2022-10-18T01:20:00.581Z,13.10
2022-10-18T01:22:42.296Z,13.10
2022-10-18T01:25:34.350Z,13.10
2022-10-18T01:28:10.539Z,13.20
2022-10-18T01:31:00.040Z,13.40
2022-10-18T01:33:34.283Z,13.50
2022-10-18T01:36:10.571Z,13.00
2022-10-18T01:38:39.825Z,13.00
2022-10-18T01:41:13.178Z,12.70
2022-10-18T01:43:46.144Z,13.40
2022-10-18T01:46:18.021Z,13.40
2022-10-18T01:53:41.124Z,12.90
2022-10-18T01:56:37.170Z,13.00
2022-10-18T01:59:27.173Z,12.80
2022-10-18T02:02:13.969Z,12.90
2022-10-18T02:04:50.410Z,12.80
2022-10-18T02:07:28.411Z,12.80
2022-10-18T02:10:11.125Z,12.80
2022-10-18T02:12:43.185Z,12.70
2022-10-18T02:15:14.474Z,12.10
2022-10-18T02:20:10.440Z,12.50
2022-10-18T02:22:39.754Z,12.50
2022-10-18T02:25:12.406Z,12.40
2022-10-18T02:27:40.358Z,12.30
2022-10-18T02:30:08.378Z,12.20
2022-10-18T02:32:48.722Z,12.30
2022-10-18T02:35:28.341Z,12.30
2022-10-18T02:37:58.309Z,12.30
2022-10-18T02:40:26.560Z,12.20
2022-10-18T02:42:58.655Z,12.20
2022-10-18T02:45:27.158Z,12.30
2022-10-18T03:00:14.184Z,12.40
2022-10-18T03:02:41.594Z,12.40
2022-10-18T03:05:08.862Z,15.50
2022-10-18T03:10:04.383Z,12.40
2022-10-18T03:39:39.915Z,12.30
2022-10-18T03:56:54.165Z,12.40
2022-10-18T04:01:51.403Z,12.50
2022-10-18T04:04:18.669Z,12.40
2022-10-18T04:06:46.190Z,11.70
2022-10-18T04:09:13.482Z,12.40
2022-10-18T04:14:08.658Z,12.40
2022-10-18T04:21:31.885Z,12.40
2022-10-18T04:43:42.900Z,12.90
2022-10-18T04:46:10.445Z,14.50
2022-10-18T04:48:37.697Z,13.20
2022-10-18T04:51:05.217Z,12.80
2022-10-18T04:53:32.791Z,13.20
2022-10-18T04:56:00.280Z,13.10
2022-10-18T04:58:27.620Z,12.90
2022-10-18T05:00:57.313Z,12.20
2022-10-18T05:03:24.660Z,13.60
2022-10-18T05:06:07.007Z,12.80
2022-10-18T05:08:35.835Z,12.90
2022-10-18T05:11:04.408Z,12.90
2022-10-18T05:13:31.796Z,12.70
2022-10-18T05:16:00.378Z,12.90
2022-10-18T05:18:27.755Z,10.40
2022-10-18T05:20:55.244Z,13.30
2022-10-18T05:23:22.964Z,13.10
2022-10-18T05:25:50.492Z,13.20
2022-10-18T05:31:08.198Z,13.40
2022-10-18T05:33:35.952Z,13.20
2022-10-18T05:36:04.206Z,13.80
2022-10-18T05:38:31.586Z,13.40
2022-10-18T05:41:03.615Z,13.90
2022-10-18T05:43:30.832Z,13.00
2022-10-18T05:45:58.417Z,13.00
2022-10-18T05:48:25.685Z,14.10
2022-10-18T05:50:53.350Z,16.00
2022-10-18T05:56:07.283Z,13.80
2022-10-18T05:58:34.976Z,14.40
2022-10-18T06:01:03.897Z,13.80
2022-10-18T06:03:31.456Z,14.00
2022-10-18T06:06:07.634Z,13.80
2022-10-18T06:08:36.267Z,13.90
2022-10-18T06:11:20.442Z,13.70
2022-10-18T06:13:50.226Z,13.80
2022-10-18T06:16:20.667Z,13.90
2022-10-18T06:18:53.212Z,15.30
2022-10-18T06:21:21.611Z,13.60
2022-10-18T06:23:50.159Z,13.80
2022-10-18T06:26:18.118Z,14.00
2022-10-18T06:28:45.543Z,14.10
2022-10-18T06:31:13.870Z,14.10
2022-10-18T06:33:41.359Z,14.00
2022-10-18T06:36:13.471Z,14.20
2022-10-18T06:41:09.135Z,14.30
2022-10-18T06:43:37.019Z,16.20
2022-10-18T06:46:07.677Z,14.30
2022-10-18T06:48:39.644Z,14.30
2022-10-18T06:51:08.378Z,13.90
2022-10-18T06:53:43.920Z,13.90
2022-10-18T06:58:44.008Z,14.50
2022-10-18T07:01:14.019Z,14.50
2022-10-18T07:03:41.607Z,14.40
2022-10-18T07:06:11.464Z,14.40
2022-10-18T07:08:39.752Z,14.60
2022-10-18T07:11:08.082Z,14.30
2022-10-18T07:13:35.738Z,14.70
2022-10-18T07:16:06.103Z,16.60
2022-10-18T07:18:34.959Z,14.70
2022-10-18T07:21:07.117Z,14.80
2022-10-18T07:23:35.623Z,14.90
2022-10-18T07:26:27.292Z,14.80
2022-10-18T07:28:58.055Z,15.10
2022-10-18T07:31:26.087Z,15.10
2022-10-18T07:33:54.361Z,16.50
2022-10-18T07:36:22.361Z,15.80
2022-10-18T07:38:52.069Z,16.90
2022-10-18T07:41:19.550Z,14.50
2022-10-18T07:43:50.924Z,15.00
2022-10-18T07:46:20.004Z,17.70
2022-10-18T07:48:48.212Z,18.10
2022-10-18T07:51:16.101Z,15.10
2022-10-18T07:53:43.494Z,15.00
2022-10-18T07:56:16.643Z,15.20
2022-10-18T07:58:51.402Z,15.40
2022-10-18T08:01:20.687Z,15.60
2022-10-18T08:03:48.117Z,16.70
2022-10-18T08:06:18.635Z,15.30
2022-10-18T08:08:46.628Z,15.40
2022-10-18T08:11:17.960Z,18.00
2022-10-18T08:13:45.585Z,15.50
2022-10-18T08:16:16.374Z,16.10
2022-10-18T08:18:44.060Z,15.60
2022-10-18T08:21:14.223Z,15.70
2022-10-18T08:23:42.132Z,16.50
2022-10-18T08:26:15.893Z,16.70
2022-10-18T08:28:53.513Z,15.80
2022-10-18T08:31:21.854Z,15.80
2022-10-18T08:33:49.256Z,15.70
2022-10-18T08:36:17.614Z,15.80
2022-10-18T08:38:44.852Z,15.70
2022-10-18T08:41:27.630Z,15.70
2022-10-18T08:44:24.023Z,15.40
2022-10-18T08:46:56.393Z,15.90
2022-10-18T08:49:32.408Z,15.90
2022-10-18T08:52:00.097Z,15.90
2022-10-18T08:54:37.699Z,16.00
2022-10-18T08:57:12.559Z,17.00
2022-10-18T08:59:41.115Z,17.80
2022-10-18T09:02:55.641Z,17.70
2022-10-18T09:05:28.084Z,16.30
2022-10-18T09:08:24.122Z,16.40
2022-10-18T09:11:18.606Z,16.60
2022-10-18T09:14:15.131Z,16.60
2022-10-18T09:17:03.770Z,16.60
2022-10-18T09:19:46.791Z,16.60
2022-10-18T09:22:18.120Z,16.60
2022-10-18T09:24:51.344Z,16.50
2022-10-18T09:27:20.687Z,16.50
2022-10-18T09:30:05.599Z,16.50
2022-10-18T09:32:54.832Z,16.50
2022-10-18T09:35:27.409Z,16.50
2022-10-18T09:38:03.413Z,18.50
2022-10-18T09:40:36.437Z,17.80
2022-10-18T09:43:11.918Z,19.20
2022-10-18T09:45:43.062Z,16.80
2022-10-18T09:48:28.462Z,16.80
2022-10-18T09:51:21.899Z,16.80
2022-10-18T09:54:23.711Z,16.80
2022-10-18T09:57:25.422Z,16.70
2022-10-18T09:59:52.710Z,16.70
2022-10-18T10:02:23.210Z,16.70
2022-10-18T10:04:51.908Z,16.60
2022-10-18T10:07:24.308Z,16.50
2022-10-18T10:10:12.510Z,16.50
2022-10-18T10:12:41.120Z,16.50
2022-10-18T10:15:29.692Z,16.40
2022-10-18T10:18:01.754Z,16.40
2022-10-18T10:20:44.345Z,16.30
2022-10-18T10:23:21.742Z,16.30
2022-10-18T10:25:54.423Z,16.30
2022-10-18T10:28:28.937Z,16.30
2022-10-18T10:31:34.342Z,18.40
2022-10-18T10:34:14.241Z,16.20
2022-10-18T10:36:53.814Z,16.10
2022-10-18T10:39:24.094Z,16.10
2022-10-18T10:41:53.935Z,16.00
2022-10-18T10:44:33.920Z,17.20
2022-10-18T10:47:01.587Z,16.00
2022-10-18T10:49:45.524Z,15.60
2022-10-18T10:52:26.830Z,15.90
2022-10-18T10:57:47.458Z,15.90
2022-10-18T11:00:33.909Z,15.90
2022-10-18T11:03:28.647Z,15.90
2022-10-18T11:06:00.540Z,15.90
2022-10-18T11:08:32.954Z,15.80
2022-10-18T11:11:23.170Z,15.90
2022-10-18T11:14:13.542Z,15.80
2022-10-18T11:16:58.743Z,15.80
2022-10-18T11:19:47.280Z,17.80
2022-10-18T11:22:20.999Z,15.60
2022-10-18T11:24:48.367Z,15.60
2022-10-18T11:27:42.142Z,15.50
2022-10-18T11:30:48.884Z,15.40
2022-10-18T11:34:07.675Z,15.40
2022-10-18T11:36:56.346Z,15.30
2022-10-18T11:40:02.270Z,15.20
2022-10-18T11:42:54.739Z,15.20
2022-10-18T11:45:36.718Z,15.20
2022-10-18T11:48:10.499Z,15.30
2022-10-18T11:50:53.446Z,15.30
2022-10-18T11:53:25.597Z,15.30
2022-10-18T11:56:14.053Z,15.20
2022-10-18T11:58:59.989Z,15.20
2022-10-18T12:01:42.074Z,15.30
2022-10-18T12:04:30.493Z,15.40
2022-10-18T12:06:58.519Z,15.30
2022-10-18T12:09:31.084Z,15.30
2022-10-18T12:12:26.728Z,15.30
2022-10-18T12:15:02.600Z,15.30
2022-10-18T12:17:51.408Z,15.30
2022-10-18T12:20:41.906Z,15.30
2022-10-18T12:23:14.261Z,15.30
2022-10-18T12:25:46.251Z,15.30
2022-10-18T12:28:22.558Z,15.30
2022-10-18T12:31:06.364Z,15.40
2022-10-18T12:33:41.063Z,15.40
2022-10-18T12:36:11.377Z,15.30
2022-10-18T12:38:43.809Z,15.30
2022-10-18T12:41:20.772Z,15.40
2022-10-18T12:43:55.111Z,15.50
2022-10-18T12:46:22.594Z,15.30
2022-10-18T12:49:05.238Z,15.30
2022-10-18T12:51:32.636Z,15.30
2022-10-18T12:54:03.039Z,15.30
2022-10-18T12:56:33.135Z,15.30
2022-10-18T12:59:15.678Z,15.30
2022-10-18T13:01:52.114Z,15.20
2022-10-18T13:04:28.861Z,15.20
2022-10-18T13:07:05.204Z,15.30
2022-10-18T13:09:41.170Z,15.30
2022-10-18T13:12:11.353Z,15.20
2022-10-18T13:15:07.325Z,15.30
2022-10-18T13:17:59.832Z,15.30
2022-10-18T13:21:05.697Z,15.30
2022-10-18T13:23:39.727Z,15.30
2022-10-18T13:26:32.095Z,15.80
2022-10-18T13:29:19.003Z,15.10
2022-10-18T13:32:04.277Z,15.10
2022-10-18T13:34:35.435Z,15.10
2022-10-18T13:37:05.648Z,15.10
2022-10-18T13:39:33.846Z,15.10
2022-10-18T13:42:01.406Z,15.00
2022-10-18T13:44:39.919Z,15.10
2022-10-18T13:47:07.250Z,16.10
2022-10-18T13:49:44.657Z,15.10
2022-10-18T13:52:58.994Z,15.00
2022-10-18T13:55:38.208Z,15.00
2022-10-18T13:58:49.269Z,15.00
2022-10-18T14:01:29.645Z,15.10
2022-10-18T14:04:37.933Z,15.00
2022-10-18T14:07:06.564Z,15.00
2022-10-18T14:09:56.306Z,16.80
2022-10-18T14:12:44.295Z,15.00
2022-10-18T14:15:25.480Z,15.00
2022-10-18T14:18:18.965Z,15.00
2022-10-18T14:21:12.292Z,14.90
2022-10-18T14:23:44.840Z,14.80
2022-10-18T14:26:20.719Z,14.70
2022-10-18T14:29:04.169Z,14.70
2022-10-18T14:31:32.471Z,14.70
2022-10-18T14:34:01.037Z,14.60
2022-10-18T14:36:40.446Z,14.60
2022-10-18T14:39:22.753Z,14.50
2022-10-18T14:41:55.936Z,14.50
2022-10-18T14:44:29.247Z,14.50
2022-10-18T14:47:04.022Z,14.40
2022-10-18T14:49:31.529Z,14.50
2022-10-18T14:52:00.496Z,14.50
2022-10-18T14:54:37.728Z,14.40
2022-10-18T14:57:07.159Z,14.50
2022-10-18T14:59:54.070Z,14.60
2022-10-18T15:02:24.186Z,14.50
2022-10-18T15:04:57.270Z,15.10
2022-10-18T15:07:26.107Z,14.40
2022-10-18T15:09:55.304Z,14.40
2022-10-18T15:12:23.339Z,14.40
2022-10-18T15:14:51.298Z,14.40
2022-10-18T15:17:27.872Z,14.40
2022-10-18T15:19:59.381Z,14.40
2022-10-18T15:22:43.749Z,14.40
2022-10-18T15:25:29.445Z,14.50
2022-10-18T15:28:00.677Z,14.40
2022-10-18T15:30:39.541Z,14.30
2022-10-18T15:33:11.786Z,14.40
2022-10-18T15:35:39.672Z,14.40
2022-10-18T15:38:16.844Z,14.40
2022-10-18T15:40:44.564Z,14.40
2022-10-18T15:43:24.339Z,14.40
2022-10-18T15:46:00.147Z,14.50
2022-10-18T15:48:38.647Z,14.50
2022-10-18T15:51:37.588Z,14.40
2022-10-18T15:54:05.190Z,14.40
2022-10-18T15:56:36.712Z,14.40
2022-10-18T15:59:28.837Z,14.40
2022-10-18T16:01:56.434Z,14.50
2022-10-18T16:04:25.907Z,14.30
2022-10-18T16:06:55.617Z,14.30
2022-10-18T16:09:26.103Z,14.90
2022-10-18T16:11:57.325Z,14.40
2022-10-18T16:14:26.676Z,14.30
2022-10-18T16:16:56.383Z,14.40
2022-10-18T16:19:24.161Z,14.40
2022-10-18T16:21:53.733Z,14.30
2022-10-18T16:24:23.300Z,14.30
2022-10-18T16:26:51.528Z,14.30
2022-10-18T16:29:24.589Z,14.30
2022-10-18T16:31:53.839Z,14.30
2022-10-18T16:34:22.198Z,14.30
2022-10-18T16:36:49.991Z,14.30
2022-10-18T16:39:19.831Z,14.30
2022-10-18T16:41:48.485Z,14.20
2022-10-18T16:44:17.770Z,14.20
2022-10-18T16:46:46.473Z,14.90
2022-10-18T16:49:24.306Z,14.20
2022-10-18T16:51:54.870Z,14.20
2022-10-18T16:54:23.619Z,14.10
2022-10-18T16:56:54.124Z,14.10
2022-10-18T16:59:29.250Z,14.10
2022-10-18T17:01:58.030Z,14.10
2022-10-18T17:04:26.205Z,14.20
2022-10-18T17:06:57.454Z,14.20
2022-10-18T17:09:25.361Z,14.30
2022-10-18T17:11:53.265Z,14.20
2022-10-18T17:14:21.060Z,14.20
2022-10-18T17:16:52.304Z,14.30
2022-10-18T17:19:23.899Z,14.20
2022-10-18T17:21:51.275Z,14.20
2022-10-18T17:24:18.845Z,14.20
2022-10-18T17:26:46.152Z,14.20
2022-10-18T17:29:14.261Z,14.20
2022-10-18T17:31:41.602Z,14.10
2022-10-18T17:34:09.631Z,14.10
2022-10-18T17:36:37.272Z,14.10
2022-10-18T17:39:05.181Z,14.10
2022-10-18T17:41:32.513Z,14.10
2022-10-18T17:44:02.243Z,14.10
2022-10-18T17:46:29.856Z,14.00
2022-10-18T17:48:58.228Z,14.00
2022-10-18T17:51:25.862Z,14.00
2022-10-18T17:53:54.716Z,14.10
2022-10-18T17:56:22.634Z,14.10
2022-10-18T17:58:53.120Z,14.00
2022-10-18T18:01:23.362Z,14.00
2022-10-18T18:03:56.214Z,14.00
2022-10-18T18:06:34.194Z,13.90
2022-10-18T18:09:07.484Z,15.40
2022-10-18T18:11:36.454Z,13.80
2022-10-18T18:14:09.160Z,16.00
2022-10-18T18:16:38.445Z,13.80
2022-10-18T18:19:09.660Z,13.70
2022-10-18T18:21:38.555Z,13.60
2022-10-18T18:24:07.258Z,13.60
2022-10-18T18:26:36.311Z,15.00
2022-10-18T18:29:04.484Z,13.60
2022-10-18T18:31:37.750Z,13.70
2022-10-18T18:34:09.648Z,13.70
2022-10-18T18:36:37.045Z,13.60
2022-10-18T18:39:05.841Z,13.50
2022-10-18T18:41:33.443Z,13.50
2022-10-18T18:44:06.350Z,13.40
2022-10-18T18:46:39.127Z,13.30
2022-10-18T18:49:08.370Z,13.30
2022-10-18T18:51:38.268Z,13.20
2022-10-18T18:54:07.710Z,13.30
2022-10-18T18:56:35.237Z,13.20
2022-10-18T18:59:03.335Z,13.20
2022-10-18T19:01:36.107Z,13.00
2022-10-18T19:04:05.844Z,13.00
2022-10-18T19:06:44.399Z,12.90
2022-10-18T19:09:25.644Z,12.90
2022-10-18T19:11:54.758Z,12.80
2022-10-18T19:14:25.049Z,12.80
2022-10-18T19:16:59.159Z,12.70
2022-10-18T19:19:28.482Z,12.80
2022-10-18T19:22:00.969Z,12.80
2022-10-18T19:24:30.415Z,12.80
2022-10-18T19:27:00.635Z,12.80
2022-10-18T19:29:28.731Z,12.70
2022-10-18T19:31:59.884Z,13.70
2022-10-18T19:34:29.178Z,12.60
2022-10-18T19:36:56.675Z,12.60
2022-10-18T19:39:32.754Z,12.70
2022-10-18T19:42:03.505Z,12.60
2022-10-18T19:44:32.994Z,14.30
2022-10-18T19:47:00.909Z,12.70
2022-10-18T19:49:28.950Z,13.60
2022-10-18T19:51:57.468Z,12.60
2022-10-18T19:54:26.818Z,12.60
2022-10-18T19:56:54.402Z,12.50
2022-10-18T19:59:22.963Z,12.40
2022-10-18T20:01:50.626Z,12.40
2022-10-18T20:04:18.333Z,12.30
2022-10-18T20:06:45.887Z,12.30
2022-10-18T20:09:17.698Z,12.10
2022-10-18T20:11:47.882Z,12.10
2022-10-18T20:14:15.534Z,12.10
2022-10-18T20:16:42.770Z,12.00
2022-10-18T20:19:10.749Z,12.00
2022-10-18T20:21:39.480Z,12.10
2022-10-18T20:24:07.843Z,11.80
2022-10-18T20:26:35.978Z,11.80
2022-10-18T20:29:04.677Z,11.80
2022-10-18T20:31:35.679Z,11.70
2022-10-18T20:34:06.456Z,11.60
2022-10-18T20:36:34.539Z,11.50
2022-10-18T20:39:02.482Z,11.50
2022-10-18T20:41:32.620Z,11.40
2022-10-18T20:44:02.590Z,11.30
2022-10-18T20:46:31.860Z,12.90
2022-10-18T20:48:59.508Z,12.30
2022-10-18T20:51:27.184Z,11.20
2022-10-18T20:53:54.964Z,11.10
2022-10-18T20:56:25.374Z,11.10
2022-10-18T20:58:55.901Z,11.10
2022-10-18T21:01:26.118Z,11.10
2022-10-18T21:03:55.711Z,10.90
2022-10-18T21:06:31.960Z,11.10
2022-10-18T21:09:05.145Z,11.10
2022-10-18T21:11:36.777Z,11.10
2022-10-18T21:14:05.633Z,11.10
2022-10-18T21:16:35.250Z,11.00
2022-10-18T21:19:08.012Z,10.90
2022-10-18T21:21:35.959Z,10.80
2022-10-18T21:24:07.027Z,10.70
2022-10-18T21:26:36.513Z,10.70
2022-10-18T21:29:05.242Z,10.60
2022-10-18T21:31:35.052Z,10.60
2022-10-18T21:34:17.462Z,10.50
2022-10-18T21:36:46.624Z,10.50
2022-10-18T21:39:21.704Z,10.60
2022-10-18T21:41:49.442Z,10.60
2022-10-18T21:44:17.081Z,10.70
2022-10-18T21:46:45.198Z,10.70
2022-10-18T21:49:13.755Z,10.70
2022-10-18T21:51:41.785Z,10.80
2022-10-18T21:54:14.400Z,10.90
2022-10-18T21:56:41.653Z,10.90
2022-10-18T21:59:11.717Z,11.10
2022-10-18T22:01:39.810Z,11.10
2022-10-18T22:04:17.019Z,11.10
2022-10-18T22:06:44.179Z,11.20
2022-10-18T22:09:14.521Z,11.20
2022-10-18T22:11:45.379Z,11.20
2022-10-18T22:14:12.635Z,11.20
2022-10-18T22:16:39.912Z,11.20
2022-10-18T22:19:07.599Z,11.20
2022-10-18T22:21:34.965Z,11.20
2022-10-18T22:24:05.647Z,11.20
2022-10-18T22:26:36.036Z,11.20
2022-10-18T22:29:10.018Z,11.20
2022-10-18T22:31:40.564Z,11.20
2022-10-18T22:34:11.475Z,10.50
2022-10-18T22:36:38.665Z,11.20
2022-10-18T22:39:07.115Z,11.20
2022-10-18T22:41:35.324Z,11.20
2022-10-18T22:44:03.830Z,11.20
2022-10-18T22:46:32.915Z,11.20
2022-10-18T22:49:00.436Z,11.20
2022-10-18T22:51:27.542Z,11.20
2022-10-18T22:53:54.864Z,11.30
2022-10-18T22:56:23.360Z,11.30
2022-10-18T22:58:50.816Z,11.30
2022-10-18T23:01:21.198Z,11.30
2022-10-18T23:03:57.020Z,11.30
2022-10-18T23:06:35.737Z,11.30
2022-10-18T23:09:06.296Z,11.30
2022-10-18T23:11:34.949Z,11.30
2022-10-18T23:14:04.030Z,11.30
2022-10-18T23:16:31.592Z,11.30
2022-10-18T23:18:59.675Z,11.30
2022-10-18T23:21:28.271Z,11.30
2022-10-18T23:23:56.322Z,11.20
2022-10-18T23:26:25.911Z,11.30
2022-10-18T23:28:53.867Z,11.30
2022-10-18T23:31:27.369Z,11.30
2022-10-18T23:33:58.903Z,11.30
2022-10-18T23:36:26.804Z,11.20
2022-10-18T23:38:55.229Z,11.20
2022-10-18T23:41:23.262Z,11.20
2022-10-18T23:43:50.657Z,11.10
2022-10-18T23:46:18.740Z,11.20
2022-10-18T23:48:46.870Z,11.20
2022-10-18T23:51:14.690Z,11.00
2022-10-18T23:53:42.309Z,11.10
2022-10-18T23:56:12.660Z,11.00
2022-10-18T23:58:40.754Z,11.10
